sensor_id;sensor_type;location;lat;lon;timestamp;P1;durP1;ratioP1;P2;durP2;ratioP2
33826;SDS011;20128;45.582;5.298;2023-03-16T00:00:42;14.98;;;5.85;;
33826;SDS011;20128;45.582;5.298;2023-03-16T00:03:11;19.35;;;9.07;;
33826;SDS011;20128;45.582;5.298;2023-03-16T00:05:43;11.95;;;5.68;;
33826;SDS011;20128;45.582;5.298;2023-03-16T00:08:10;22.10;;;9.73;;
33826;SDS011;20128;45.582;5.298;2023-03-16T00:10:36;21.95;;;7.90;;
33826;SDS011;20128;45.582;5.298;2023-03-16T00:13:02;15.68;;;6.57;;
33826;SDS011;20128;45.582;5.298;2023-03-16T00:15:28;14.73;;;6.25;;
33826;SDS011;20128;45.582;5.298;2023-03-16T00:17:54;18.52;;;6.68;;
33826;SDS011;20128;45.582;5.298;2023-03-16T00:20:20;22.20;;;6.15;;
33826;SDS011;20128;45.582;5.298;2023-03-16T00:22:46;23.45;;;10.70;;
33826;SDS011;20128;45.582;5.298;2023-03-16T00:25:12;18.80;;;7.45;;
33826;SDS011;20128;45.582;5.298;2023-03-16T00:27:39;10.98;;;4.65;;
33826;SDS011;20128;45.582;5.298;2023-03-16T00:30:07;11.10;;;4.93;;
33826;SDS011;20128;45.582;5.298;2023-03-16T00:32:34;9.30;;;4.25;;
33826;SDS011;20128;45.582;5.298;2023-03-16T00:35:01;12.27;;;4.32;;
33826;SDS011;20128;45.582;5.298;2023-03-16T00:37:28;13.35;;;4.75;;
33826;SDS011;20128;45.582;5.298;2023-03-16T00:39:56;8.63;;;4.13;;
33826;SDS011;20128;45.582;5.298;2023-03-16T00:42:26;11.38;;;5.32;;
33826;SDS011;20128;45.582;5.298;2023-03-16T00:44:54;11.77;;;5.45;;
33826;SDS011;20128;45.582;5.298;2023-03-16T00:47:26;19.38;;;5.43;;
33826;SDS011;20128;45.582;5.298;2023-03-16T00:49:54;10.05;;;4.85;;
33826;SDS011;20128;45.582;5.298;2023-03-16T00:52:20;9.68;;;4.95;;
33826;SDS011;20128;45.582;5.298;2023-03-16T00:54:47;11.57;;;4.20;;
33826;SDS011;20128;45.582;5.298;2023-03-16T00:57:15;11.98;;;4.53;;
33826;SDS011;20128;45.582;5.298;2023-03-16T00:59:45;12.02;;;4.20;;
33826;SDS011;20128;45.582;5.298;2023-03-16T01:02:11;11.70;;;4.72;;
33826;SDS011;20128;45.582;5.298;2023-03-16T01:04:38;13.88;;;4.57;;
33826;SDS011;20128;45.582;5.298;2023-03-16T01:07:06;9.07;;;3.65;;
33826;SDS011;20128;45.582;5.298;2023-03-16T01:09:33;11.27;;;4.80;;
33826;SDS011;20128;45.582;5.298;2023-03-16T01:12:08;13.43;;;4.63;;
33826;SDS011;20128;45.582;5.298;2023-03-16T01:14:39;12.00;;;4.20;;
33826;SDS011;20128;45.582;5.298;2023-03-16T01:17:06;9.68;;;3.90;;
33826;SDS011;20128;45.582;5.298;2023-03-16T01:19:33;10.18;;;4.15;;
33826;SDS011;20128;45.582;5.298;2023-03-16T01:22:03;8.57;;;3.75;;
33826;SDS011;20128;45.582;5.298;2023-03-16T01:24:30;11.05;;;4.18;;
33826;SDS011;20128;45.582;5.298;2023-03-16T01:26:55;10.27;;;4.10;;
33826;SDS011;20128;45.582;5.298;2023-03-16T01:29:21;8.05;;;4.55;;
33826;SDS011;20128;45.582;5.298;2023-03-16T01:31:47;11.63;;;3.30;;
33826;SDS011;20128;45.582;5.298;2023-03-16T01:34:15;8.68;;;2.90;;
33826;SDS011;20128;45.582;5.298;2023-03-16T01:36:43;9.00;;;3.85;;
33826;SDS011;20128;45.582;5.298;2023-03-16T01:39:11;8.30;;;3.85;;
33826;SDS011;20128;45.582;5.298;2023-03-16T01:41:37;9.70;;;3.90;;
33826;SDS011;20128;45.582;5.298;2023-03-16T01:44:04;8.68;;;3.90;;
33826;SDS011;20128;45.582;5.298;2023-03-16T01:46:30;9.50;;;3.78;;
33826;SDS011;20128;45.582;5.298;2023-03-16T01:54:27;8.00;;;4.00;;
33826;SDS011;20128;45.582;5.298;2023-03-16T01:57:06;10.27;;;3.72;;
33826;SDS011;20128;45.582;5.298;2023-03-16T01:59:45;9.88;;;3.30;;
33826;SDS011;20128;45.582;5.298;2023-03-16T02:02:12;10.48;;;3.58;;
33826;SDS011;20128;45.582;5.298;2023-03-16T02:04:47;8.63;;;3.40;;
33826;SDS011;20128;45.582;5.298;2023-03-16T02:07:25;6.18;;;2.75;;
33826;SDS011;20128;45.582;5.298;2023-03-16T02:09:54;12.57;;;3.85;;
33826;SDS011;20128;45.582;5.298;2023-03-16T02:12:23;8.18;;;3.10;;
33826;SDS011;20128;45.582;5.298;2023-03-16T02:14:50;6.57;;;3.45;;
33826;SDS011;20128;45.582;5.298;2023-03-16T02:17:18;14.82;;;3.42;;
33826;SDS011;20128;45.582;5.298;2023-03-16T02:22:38;7.82;;;3.65;;
33826;SDS011;20128;45.582;5.298;2023-03-16T02:25:06;9.75;;;4.18;;
33826;SDS011;20128;45.582;5.298;2023-03-16T02:27:38;8.35;;;3.53;;
33826;SDS011;20128;45.582;5.298;2023-03-16T02:30:24;11.98;;;3.05;;
33826;SDS011;20128;45.582;5.298;2023-03-16T02:32:51;6.50;;;2.13;;
33826;SDS011;20128;45.582;5.298;2023-03-16T02:35:17;6.95;;;2.42;;
33826;SDS011;20128;45.582;5.298;2023-03-16T02:37:43;5.43;;;2.50;;
33826;SDS011;20128;45.582;5.298;2023-03-16T02:45:26;5.00;;;2.67;;
33826;SDS011;20128;45.582;5.298;2023-03-16T02:47:57;6.78;;;3.17;;
33826;SDS011;20128;45.582;5.298;2023-03-16T02:50:27;11.38;;;3.90;;
33826;SDS011;20128;45.582;5.298;2023-03-16T02:52:53;7.78;;;2.67;;
33826;SDS011;20128;45.582;5.298;2023-03-16T02:55:19;5.63;;;2.40;;
33826;SDS011;20128;45.582;5.298;2023-03-16T02:57:45;8.55;;;3.17;;
33826;SDS011;20128;45.582;5.298;2023-03-16T03:00:12;5.32;;;2.58;;
33826;SDS011;20128;45.582;5.298;2023-03-16T03:02:41;7.10;;;2.65;;
33826;SDS011;20128;45.582;5.298;2023-03-16T03:05:08;6.78;;;2.80;;
33826;SDS011;20128;45.582;5.298;2023-03-16T03:07:33;7.15;;;3.53;;
33826;SDS011;20128;45.582;5.298;2023-03-16T03:09:59;6.43;;;2.90;;
33826;SDS011;20128;45.582;5.298;2023-03-16T03:12:29;6.13;;;2.50;;
33826;SDS011;20128;45.582;5.298;2023-03-16T03:14:56;5.70;;;2.95;;
33826;SDS011;20128;45.582;5.298;2023-03-16T03:17:22;7.68;;;2.65;;
33826;SDS011;20128;45.582;5.298;2023-03-16T03:19:54;8.73;;;2.25;;
33826;SDS011;20128;45.582;5.298;2023-03-16T03:22:24;6.78;;;3.22;;
33826;SDS011;20128;45.582;5.298;2023-03-16T03:24:50;7.60;;;2.90;;
33826;SDS011;20128;45.582;5.298;2023-03-16T03:27:17;7.55;;;2.05;;
33826;SDS011;20128;45.582;5.298;2023-03-16T03:29:43;5.18;;;2.40;;
33826;SDS011;20128;45.582;5.298;2023-03-16T03:32:09;8.45;;;2.78;;
33826;SDS011;20128;45.582;5.298;2023-03-16T03:34:35;7.40;;;2.78;;
33826;SDS011;20128;45.582;5.298;2023-03-16T03:37:01;6.78;;;2.38;;
33826;SDS011;20128;45.582;5.298;2023-03-16T03:39:27;5.95;;;2.28;;
33826;SDS011;20128;45.582;5.298;2023-03-16T03:41:53;5.53;;;2.20;;
33826;SDS011;20128;45.582;5.298;2023-03-16T03:44:19;6.10;;;2.45;;
33826;SDS011;20128;45.582;5.298;2023-03-16T03:46:46;4.97;;;1.95;;
33826;SDS011;20128;45.582;5.298;2023-03-16T03:49:12;6.03;;;2.15;;
33826;SDS011;20128;45.582;5.298;2023-03-16T03:51:38;9.48;;;2.67;;
33826;SDS011;20128;45.582;5.298;2023-03-16T03:54:05;7.18;;;2.58;;
33826;SDS011;20128;45.582;5.298;2023-03-16T03:56:31;8.43;;;2.70;;
33826;SDS011;20128;45.582;5.298;2023-03-16T03:58:56;8.13;;;3.55;;
33826;SDS011;20128;45.582;5.298;2023-03-16T04:01:22;10.13;;;3.10;;
33826;SDS011;20128;45.582;5.298;2023-03-16T04:03:48;9.10;;;3.42;;
33826;SDS011;20128;45.582;5.298;2023-03-16T04:06:13;7.65;;;2.97;;
33826;SDS011;20128;45.582;5.298;2023-03-16T04:08:39;8.93;;;3.00;;
33826;SDS011;20128;45.582;5.298;2023-03-16T04:11:05;8.77;;;2.65;;
33826;SDS011;20128;45.582;5.298;2023-03-16T04:13:30;4.85;;;2.50;;
33826;SDS011;20128;45.582;5.298;2023-03-16T04:15:56;10.27;;;3.00;;
33826;SDS011;20128;45.582;5.298;2023-03-16T04:18:23;7.13;;;2.90;;
33826;SDS011;20128;45.582;5.298;2023-03-16T04:20:49;8.57;;;3.72;;
33826;SDS011;20128;45.582;5.298;2023-03-16T04:23:17;6.75;;;3.38;;
33826;SDS011;20128;45.582;5.298;2023-03-16T04:25:43;7.90;;;3.28;;
33826;SDS011;20128;45.582;5.298;2023-03-16T04:28:09;6.43;;;2.65;;
33826;SDS011;20128;45.582;5.298;2023-03-16T04:30:35;5.60;;;2.72;;
33826;SDS011;20128;45.582;5.298;2023-03-16T04:33:01;9.52;;;3.10;;
33826;SDS011;20128;45.582;5.298;2023-03-16T04:35:26;6.55;;;2.88;;
33826;SDS011;20128;45.582;5.298;2023-03-16T04:37:52;9.93;;;3.08;;
33826;SDS011;20128;45.582;5.298;2023-03-16T04:40:18;10.35;;;2.55;;
33826;SDS011;20128;45.582;5.298;2023-03-16T04:42:45;5.65;;;2.72;;
33826;SDS011;20128;45.582;5.298;2023-03-16T04:45:11;11.70;;;2.88;;
33826;SDS011;20128;45.582;5.298;2023-03-16T04:47:38;8.00;;;2.60;;
33826;SDS011;20128;45.582;5.298;2023-03-16T04:50:05;16.83;;;3.22;;
33826;SDS011;20128;45.582;5.298;2023-03-16T04:52:31;9.60;;;2.47;;
33826;SDS011;20128;45.582;5.298;2023-03-16T04:54:57;5.65;;;2.13;;
33826;SDS011;20128;45.582;5.298;2023-03-16T04:57:23;8.85;;;2.75;;
33826;SDS011;20128;45.582;5.298;2023-03-16T04:59:49;5.15;;;2.38;;
33826;SDS011;20128;45.582;5.298;2023-03-16T05:02:15;8.20;;;3.03;;
33826;SDS011;20128;45.582;5.298;2023-03-16T05:04:41;9.70;;;2.95;;
33826;SDS011;20128;45.582;5.298;2023-03-16T05:07:07;6.47;;;2.35;;
33826;SDS011;20128;45.582;5.298;2023-03-16T05:09:33;7.88;;;2.53;;
33826;SDS011;20128;45.582;5.298;2023-03-16T05:11:58;9.05;;;2.53;;
33826;SDS011;20128;45.582;5.298;2023-03-16T05:14:24;4.45;;;2.15;;
33826;SDS011;20128;45.582;5.298;2023-03-16T05:16:51;6.03;;;2.95;;
33826;SDS011;20128;45.582;5.298;2023-03-16T05:19:16;7.65;;;2.47;;
33826;SDS011;20128;45.582;5.298;2023-03-16T05:21:42;10.82;;;2.67;;
33826;SDS011;20128;45.582;5.298;2023-03-16T05:24:09;7.60;;;2.08;;
33826;SDS011;20128;45.582;5.298;2023-03-16T05:26:36;6.95;;;2.30;;
33826;SDS011;20128;45.582;5.298;2023-03-16T05:29:02;10.38;;;4.90;;
33826;SDS011;20128;45.582;5.298;2023-03-16T05:31:29;26.60;;;10.10;;
33826;SDS011;20128;45.582;5.298;2023-03-16T05:33:58;10.75;;;3.78;;
33826;SDS011;20128;45.582;5.298;2023-03-16T05:36:25;5.47;;;2.00;;
33826;SDS011;20128;45.582;5.298;2023-03-16T05:38:51;18.83;;;2.88;;
33826;SDS011;20128;45.582;5.298;2023-03-16T05:41:16;7.90;;;2.80;;
33826;SDS011;20128;45.582;5.298;2023-03-16T05:43:45;11.38;;;2.35;;
33826;SDS011;20128;45.582;5.298;2023-03-16T05:46:11;7.00;;;2.03;;
33826;SDS011;20128;45.582;5.298;2023-03-16T05:48:37;7.80;;;2.13;;
33826;SDS011;20128;45.582;5.298;2023-03-16T05:51:03;5.20;;;1.95;;
33826;SDS011;20128;45.582;5.298;2023-03-16T05:53:32;11.70;;;3.05;;
33826;SDS011;20128;45.582;5.298;2023-03-16T05:55:59;7.47;;;2.58;;
33826;SDS011;20128;45.582;5.298;2023-03-16T05:58:25;10.60;;;2.00;;
33826;SDS011;20128;45.582;5.298;2023-03-16T06:00:51;9.35;;;2.00;;
33826;SDS011;20128;45.582;5.298;2023-03-16T06:03:19;4.47;;;1.70;;
33826;SDS011;20128;45.582;5.298;2023-03-16T06:05:45;8.48;;;2.63;;
33826;SDS011;20128;45.582;5.298;2023-03-16T06:08:11;11.30;;;2.03;;
33826;SDS011;20128;45.582;5.298;2023-03-16T06:10:37;7.00;;;2.03;;
33826;SDS011;20128;45.582;5.298;2023-03-16T06:13:02;6.85;;;1.75;;
33826;SDS011;20128;45.582;5.298;2023-03-16T06:15:29;4.20;;;1.55;;
33826;SDS011;20128;45.582;5.298;2023-03-16T06:17:54;2.90;;;1.73;;
33826;SDS011;20128;45.582;5.298;2023-03-16T06:20:20;4.82;;;1.90;;
33826;SDS011;20128;45.582;5.298;2023-03-16T06:22:46;5.80;;;1.73;;
33826;SDS011;20128;45.582;5.298;2023-03-16T06:25:12;3.70;;;1.67;;
33826;SDS011;20128;45.582;5.298;2023-03-16T06:27:38;5.95;;;2.88;;
33826;SDS011;20128;45.582;5.298;2023-03-16T06:30:05;7.03;;;2.10;;
33826;SDS011;20128;45.582;5.298;2023-03-16T06:32:32;3.38;;;1.60;;
33826;SDS011;20128;45.582;5.298;2023-03-16T06:34:59;9.45;;;2.17;;
33826;SDS011;20128;45.582;5.298;2023-03-16T06:37:27;4.07;;;1.65;;
33826;SDS011;20128;45.582;5.298;2023-03-16T06:39:53;3.60;;;1.40;;
33826;SDS011;20128;45.582;5.298;2023-03-16T06:42:19;4.15;;;2.08;;
33826;SDS011;20128;45.582;5.298;2023-03-16T06:44:45;5.32;;;1.75;;
33826;SDS011;20128;45.582;5.298;2023-03-16T06:47:11;5.05;;;1.70;;
33826;SDS011;20128;45.582;5.298;2023-03-16T06:49:37;9.23;;;1.40;;
33826;SDS011;20128;45.582;5.298;2023-03-16T06:52:03;2.38;;;1.40;;
33826;SDS011;20128;45.582;5.298;2023-03-16T06:54:29;3.63;;;1.90;;
33826;SDS011;20128;45.582;5.298;2023-03-16T06:56:58;3.25;;;1.60;;
33826;SDS011;20128;45.582;5.298;2023-03-16T06:59:23;3.47;;;1.40;;
33826;SDS011;20128;45.582;5.298;2023-03-16T07:01:49;7.78;;;2.05;;
33826;SDS011;20128;45.582;5.298;2023-03-16T07:04:15;3.47;;;1.65;;
33826;SDS011;20128;45.582;5.298;2023-03-16T07:06:41;5.65;;;1.83;;
33826;SDS011;20128;45.582;5.298;2023-03-16T07:09:06;3.33;;;1.27;;
33826;SDS011;20128;45.582;5.298;2023-03-16T07:11:32;3.78;;;1.75;;
33826;SDS011;20128;45.582;5.298;2023-03-16T07:13:58;6.82;;;1.77;;
33826;SDS011;20128;45.582;5.298;2023-03-16T07:16:25;4.22;;;1.92;;
33826;SDS011;20128;45.582;5.298;2023-03-16T07:18:51;3.53;;;2.00;;
33826;SDS011;20128;45.582;5.298;2023-03-16T07:21:17;7.60;;;1.52;;
33826;SDS011;20128;45.582;5.298;2023-03-16T07:23:43;4.68;;;1.60;;
33826;SDS011;20128;45.582;5.298;2023-03-16T07:26:09;6.72;;;1.88;;
33826;SDS011;20128;45.582;5.298;2023-03-16T07:28:36;8.52;;;2.13;;
33826;SDS011;20128;45.582;5.298;2023-03-16T07:31:02;5.97;;;2.10;;
33826;SDS011;20128;45.582;5.298;2023-03-16T07:33:30;6.63;;;2.10;;
33826;SDS011;20128;45.582;5.298;2023-03-16T07:35:56;4.25;;;2.08;;
33826;SDS011;20128;45.582;5.298;2023-03-16T07:38:22;4.30;;;1.60;;
33826;SDS011;20128;45.582;5.298;2023-03-16T07:40:48;7.25;;;2.03;;
33826;SDS011;20128;45.582;5.298;2023-03-16T07:43:13;3.28;;;1.60;;
33826;SDS011;20128;45.582;5.298;2023-03-16T07:45:39;6.30;;;1.83;;
33826;SDS011;20128;45.582;5.298;2023-03-16T07:48:05;5.57;;;1.77;;
33826;SDS011;20128;45.582;5.298;2023-03-16T07:50:31;7.47;;;1.80;;
33826;SDS011;20128;45.582;5.298;2023-03-16T07:52:57;6.43;;;1.80;;
33826;SDS011;20128;45.582;5.298;2023-03-16T07:55:23;3.88;;;1.90;;
33826;SDS011;20128;45.582;5.298;2023-03-16T07:57:48;5.82;;;2.08;;
33826;SDS011;20128;45.582;5.298;2023-03-16T08:00:15;8.30;;;2.45;;
33826;SDS011;20128;45.582;5.298;2023-03-16T08:02:41;7.82;;;1.92;;
33826;SDS011;20128;45.582;5.298;2023-03-16T08:05:07;7.25;;;2.17;;
33826;SDS011;20128;45.582;5.298;2023-03-16T08:07:36;13.63;;;5.30;;
33826;SDS011;20128;45.582;5.298;2023-03-16T08:10:02;5.05;;;2.35;;
33826;SDS011;20128;45.582;5.298;2023-03-16T08:12:28;4.63;;;1.25;;
33826;SDS011;20128;45.582;5.298;2023-03-16T08:14:54;7.63;;;1.55;;
33826;SDS011;20128;45.582;5.298;2023-03-16T08:17:19;6.45;;;1.95;;
33826;SDS011;20128;45.582;5.298;2023-03-16T08:19:45;4.97;;;1.45;;
33826;SDS011;20128;45.582;5.298;2023-03-16T08:22:11;5.20;;;2.25;;
33826;SDS011;20128;45.582;5.298;2023-03-16T08:24:37;6.38;;;1.70;;
33826;SDS011;20128;45.582;5.298;2023-03-16T08:27:02;7.75;;;1.88;;
33826;SDS011;20128;45.582;5.298;2023-03-16T08:29:28;6.88;;;2.00;;
33826;SDS011;20128;45.582;5.298;2023-03-16T08:31:54;5.60;;;1.58;;
33826;SDS011;20128;45.582;5.298;2023-03-16T08:34:20;7.65;;;1.58;;
33826;SDS011;20128;45.582;5.298;2023-03-16T08:36:47;3.22;;;1.05;;
33826;SDS011;20128;45.582;5.298;2023-03-16T08:39:12;6.25;;;1.38;;
33826;SDS011;20128;45.582;5.298;2023-03-16T08:41:39;1.98;;;1.25;;
33826;SDS011;20128;45.582;5.298;2023-03-16T08:44:06;3.58;;;1.40;;
33826;SDS011;20128;45.582;5.298;2023-03-16T08:46:33;3.30;;;1.35;;
33826;SDS011;20128;45.582;5.298;2023-03-16T08:48:59;5.95;;;1.17;;
33826;SDS011;20128;45.582;5.298;2023-03-16T08:51:25;3.20;;;1.17;;
33826;SDS011;20128;45.582;5.298;2023-03-16T08:53:51;9.63;;;1.83;;
33826;SDS011;20128;45.582;5.298;2023-03-16T08:56:18;7.30;;;1.53;;
33826;SDS011;20128;45.582;5.298;2023-03-16T08:58:44;5.97;;;2.15;;
33826;SDS011;20128;45.582;5.298;2023-03-16T09:01:10;6.70;;;2.25;;
33826;SDS011;20128;45.582;5.298;2023-03-16T09:03:37;2.05;;;1.05;;
33826;SDS011;20128;45.582;5.298;2023-03-16T09:06:05;5.85;;;1.45;;
33826;SDS011;20128;45.582;5.298;2023-03-16T09:08:34;4.45;;;1.27;;
33826;SDS011;20128;45.582;5.298;2023-03-16T09:11:01;2.80;;;1.17;;
33826;SDS011;20128;45.582;5.298;2023-03-16T09:13:29;3.47;;;1.38;;
33826;SDS011;20128;45.582;5.298;2023-03-16T09:15:55;2.47;;;1.30;;
33826;SDS011;20128;45.582;5.298;2023-03-16T09:18:22;4.32;;;1.25;;
33826;SDS011;20128;45.582;5.298;2023-03-16T09:20:50;4.47;;;1.48;;
33826;SDS011;20128;45.582;5.298;2023-03-16T09:23:17;2.55;;;1.17;;
33826;SDS011;20128;45.582;5.298;2023-03-16T09:25:43;6.78;;;2.25;;
33826;SDS011;20128;45.582;5.298;2023-03-16T09:28:09;3.60;;;1.90;;
33826;SDS011;20128;45.582;5.298;2023-03-16T09:30:35;2.72;;;1.20;;
33826;SDS011;20128;45.582;5.298;2023-03-16T09:33:02;2.00;;;0.82;;
33826;SDS011;20128;45.582;5.298;2023-03-16T09:35:28;7.60;;;1.20;;
33826;SDS011;20128;45.582;5.298;2023-03-16T09:37:54;2.95;;;1.98;;
33826;SDS011;20128;45.582;5.298;2023-03-16T09:40:27;4.05;;;1.50;;
33826;SDS011;20128;45.582;5.298;2023-03-16T09:48:36;4.55;;;2.13;;
33826;SDS011;20128;45.582;5.298;2023-03-16T09:51:05;5.13;;;1.20;;
33826;SDS011;20128;45.582;5.298;2023-03-16T09:53:37;5.80;;;1.50;;
33826;SDS011;20128;45.582;5.298;2023-03-16T09:58:32;4.10;;;1.27;;
33826;SDS011;20128;45.582;5.298;2023-03-16T10:06:24;5.57;;;1.85;;
33826;SDS011;20128;45.582;5.298;2023-03-16T10:09:14;4.97;;;2.63;;
33826;SDS011;20128;45.582;5.298;2023-03-16T10:11:53;10.80;;;2.03;;
33826;SDS011;20128;45.582;5.298;2023-03-16T10:14:23;3.00;;;1.10;;
33826;SDS011;20128;45.582;5.298;2023-03-16T10:17:10;2.95;;;1.08;;
33826;SDS011;20128;45.582;5.298;2023-03-16T10:19:50;3.90;;;0.90;;
33826;SDS011;20128;45.582;5.298;2023-03-16T10:22:19;1.50;;;0.68;;
33826;SDS011;20128;45.582;5.298;2023-03-16T10:29:58;1.23;;;0.60;;
33826;SDS011;20128;45.582;5.298;2023-03-16T10:32:28;2.78;;;0.82;;
33826;SDS011;20128;45.582;5.298;2023-03-16T10:38:07;2.28;;;1.00;;
33826;SDS011;20128;45.582;5.298;2023-03-16T10:40:37;3.17;;;1.00;;
33826;SDS011;20128;45.582;5.298;2023-03-16T10:43:10;2.30;;;0.80;;
33826;SDS011;20128;45.582;5.298;2023-03-16T10:45:37;3.03;;;1.08;;
33826;SDS011;20128;45.582;5.298;2023-03-16T10:48:04;5.00;;;1.13;;
33826;SDS011;20128;45.582;5.298;2023-03-16T10:50:50;4.70;;;1.30;;
33826;SDS011;20128;45.582;5.298;2023-03-16T10:55:49;1.92;;;0.90;;
33826;SDS011;20128;45.582;5.298;2023-03-16T10:58:31;9.43;;;0.93;;
33826;SDS011;20128;45.582;5.298;2023-03-16T11:00:58;1.65;;;1.27;;
33826;SDS011;20128;45.582;5.298;2023-03-16T11:03:30;4.13;;;0.98;;
33826;SDS011;20128;45.582;5.298;2023-03-16T11:06:03;3.55;;;0.90;;
33826;SDS011;20128;45.582;5.298;2023-03-16T11:08:32;5.82;;;2.00;;
33826;SDS011;20128;45.582;5.298;2023-03-16T11:11:08;2.40;;;1.08;;
33826;SDS011;20128;45.582;5.298;2023-03-16T11:13:42;2.30;;;1.38;;
33826;SDS011;20128;45.582;5.298;2023-03-16T11:18:58;3.53;;;1.83;;
33826;SDS011;20128;45.582;5.298;2023-03-16T11:21:44;4.28;;;1.10;;
33826;SDS011;20128;45.582;5.298;2023-03-16T11:24:22;3.13;;;1.20;;
33826;SDS011;20128;45.582;5.298;2023-03-16T11:27:24;3.55;;;1.20;;
33826;SDS011;20128;45.582;5.298;2023-03-16T11:32:25;4.32;;;0.95;;
33826;SDS011;20128;45.582;5.298;2023-03-16T11:56:57;2.83;;;0.53;;
33826;SDS011;20128;45.582;5.298;2023-03-16T11:59:30;4.35;;;0.95;;
33826;SDS011;20128;45.582;5.298;2023-03-16T12:10:47;2.05;;;1.00;;
33826;SDS011;20128;45.582;5.298;2023-03-16T12:13:33;4.90;;;1.08;;
33826;SDS011;20128;45.582;5.298;2023-03-16T12:16:14;3.50;;;1.20;;
33826;SDS011;20128;45.582;5.298;2023-03-16T12:18:49;3.03;;;0.77;;
33826;SDS011;20128;45.582;5.298;2023-03-16T12:21:46;3.42;;;1.33;;
33826;SDS011;20128;45.582;5.298;2023-03-16T12:24:20;2.67;;;0.98;;
33826;SDS011;20128;45.582;5.298;2023-03-16T12:26:50;2.80;;;1.23;;
33826;SDS011;20128;45.582;5.298;2023-03-16T12:29:24;1.52;;;0.70;;
33826;SDS011;20128;45.582;5.298;2023-03-16T12:32:00;5.00;;;0.80;;
33826;SDS011;20128;45.582;5.298;2023-03-16T12:40:09;2.03;;;0.90;;
33826;SDS011;20128;45.582;5.298;2023-03-16T12:48:11;2.35;;;1.17;;
33826;SDS011;20128;45.582;5.298;2023-03-16T12:50:50;1.67;;;0.82;;
33826;SDS011;20128;45.582;5.298;2023-03-16T12:56:42;5.35;;;1.00;;
33826;SDS011;20128;45.582;5.298;2023-03-16T12:59:15;2.65;;;0.93;;
33826;SDS011;20128;45.582;5.298;2023-03-16T13:01:50;5.93;;;1.38;;
33826;SDS011;20128;45.582;5.298;2023-03-16T13:07:07;4.03;;;1.33;;
33826;SDS011;20128;45.582;5.298;2023-03-16T13:09:45;2.55;;;1.25;;
33826;SDS011;20128;45.582;5.298;2023-03-16T13:12:23;4.45;;;1.88;;
33826;SDS011;20128;45.582;5.298;2023-03-16T13:14:54;5.45;;;1.48;;
33826;SDS011;20128;45.582;5.298;2023-03-16T13:17:25;3.05;;;1.75;;
33826;SDS011;20128;45.582;5.298;2023-03-16T13:20:00;5.25;;;2.22;;
33826;SDS011;20128;45.582;5.298;2023-03-16T13:22:47;3.80;;;1.90;;
33826;SDS011;20128;45.582;5.298;2023-03-16T13:25:22;9.43;;;2.17;;
33826;SDS011;20128;45.582;5.298;2023-03-16T13:28:04;6.18;;;2.17;;
33826;SDS011;20128;45.582;5.298;2023-03-16T13:30:35;3.55;;;2.58;;
33826;SDS011;20128;45.582;5.298;2023-03-16T13:33:18;5.30;;;2.65;;
33826;SDS011;20128;45.582;5.298;2023-03-16T13:35:47;6.43;;;2.70;;
33826;SDS011;20128;45.582;5.298;2023-03-16T13:38:15;4.88;;;2.95;;
33826;SDS011;20128;45.582;5.298;2023-03-16T13:40:49;4.20;;;1.85;;
33826;SDS011;20128;45.582;5.298;2023-03-16T13:43:18;8.18;;;2.33;;
33826;SDS011;20128;45.582;5.298;2023-03-16T13:45:52;4.20;;;2.10;;
33826;SDS011;20128;45.582;5.298;2023-03-16T13:48:18;4.75;;;2.10;;
33826;SDS011;20128;45.582;5.298;2023-03-16T13:50:44;5.43;;;2.10;;
33826;SDS011;20128;45.582;5.298;2023-03-16T13:53:26;7.63;;;2.70;;
33826;SDS011;20128;45.582;5.298;2023-03-16T13:55:55;4.50;;;1.88;;
33826;SDS011;20128;45.582;5.298;2023-03-16T14:00:56;7.13;;;3.17;;
33826;SDS011;20128;45.582;5.298;2023-03-16T14:03:29;3.78;;;1.75;;
33826;SDS011;20128;45.582;5.298;2023-03-16T14:05:57;8.60;;;2.78;;
33826;SDS011;20128;45.582;5.298;2023-03-16T14:08:23;5.55;;;2.45;;
33826;SDS011;20128;45.582;5.298;2023-03-16T14:10:50;6.35;;;2.80;;
33826;SDS011;20128;45.582;5.298;2023-03-16T14:15:55;4.50;;;1.98;;
33826;SDS011;20128;45.582;5.298;2023-03-16T14:18:34;2.25;;;1.85;;
33826;SDS011;20128;45.582;5.298;2023-03-16T14:21:15;4.07;;;1.70;;
33826;SDS011;20128;45.582;5.298;2023-03-16T14:23:44;4.68;;;2.13;;
33826;SDS011;20128;45.582;5.298;2023-03-16T14:26:40;6.85;;;2.58;;
33826;SDS011;20128;45.582;5.298;2023-03-16T14:29:22;3.35;;;2.10;;
33826;SDS011;20128;45.582;5.298;2023-03-16T14:31:51;8.13;;;2.70;;
33826;SDS011;20128;45.582;5.298;2023-03-16T14:34:29;8.75;;;2.90;;
33826;SDS011;20128;45.582;5.298;2023-03-16T14:37:11;3.78;;;2.58;;
33826;SDS011;20128;45.582;5.298;2023-03-16T14:39:39;6.13;;;3.03;;
33826;SDS011;20128;45.582;5.298;2023-03-16T14:42:17;5.03;;;2.28;;
33826;SDS011;20128;45.582;5.298;2023-03-16T14:44:55;3.90;;;2.05;;
33826;SDS011;20128;45.582;5.298;2023-03-16T14:47:27;6.90;;;2.13;;
33826;SDS011;20128;45.582;5.298;2023-03-16T14:49:58;4.55;;;1.77;;
33826;SDS011;20128;45.582;5.298;2023-03-16T14:52:30;3.67;;;1.40;;
33826;SDS011;20128;45.582;5.298;2023-03-16T14:54:58;6.50;;;1.40;;
33826;SDS011;20128;45.582;5.298;2023-03-16T14:57:25;2.70;;;1.20;;
33826;SDS011;20128;45.582;5.298;2023-03-16T14:59:53;5.65;;;1.30;;
33826;SDS011;20128;45.582;5.298;2023-03-16T15:04:53;4.70;;;1.80;;
33826;SDS011;20128;45.582;5.298;2023-03-16T15:07:24;4.53;;;1.80;;
33826;SDS011;20128;45.582;5.298;2023-03-16T15:12:39;3.55;;;1.40;;
33826;SDS011;20128;45.582;5.298;2023-03-16T15:15:14;8.95;;;2.10;;
33826;SDS011;20128;45.582;5.298;2023-03-16T15:17:42;6.53;;;1.55;;
33826;SDS011;20128;45.582;5.298;2023-03-16T15:20:11;5.60;;;1.95;;
33826;SDS011;20128;45.582;5.298;2023-03-16T15:22:38;4.35;;;1.40;;
33826;SDS011;20128;45.582;5.298;2023-03-16T15:28:00;5.55;;;1.55;;
33826;SDS011;20128;45.582;5.298;2023-03-16T15:30:28;6.68;;;1.50;;
33826;SDS011;20128;45.582;5.298;2023-03-16T15:32:54;7.28;;;2.30;;
33826;SDS011;20128;45.582;5.298;2023-03-16T15:35:20;6.85;;;2.65;;
33826;SDS011;20128;45.582;5.298;2023-03-16T15:37:46;18.05;;;2.65;;
33826;SDS011;20128;45.582;5.298;2023-03-16T15:40:16;6.15;;;2.60;;
33826;SDS011;20128;45.582;5.298;2023-03-16T15:42:50;7.25;;;2.50;;
33826;SDS011;20128;45.582;5.298;2023-03-16T15:45:16;6.75;;;2.40;;
33826;SDS011;20128;45.582;5.298;2023-03-16T15:47:45;7.32;;;2.00;;
33826;SDS011;20128;45.582;5.298;2023-03-16T15:50:13;5.88;;;1.40;;
33826;SDS011;20128;45.582;5.298;2023-03-16T15:52:40;5.15;;;1.10;;
33826;SDS011;20128;45.582;5.298;2023-03-16T15:55:29;4.28;;;1.20;;
33826;SDS011;20128;45.582;5.298;2023-03-16T15:57:59;5.97;;;1.67;;
33826;SDS011;20128;45.582;5.298;2023-03-16T16:02:55;9.85;;;2.10;;
33826;SDS011;20128;45.582;5.298;2023-03-16T16:05:22;6.13;;;1.80;;
33826;SDS011;20128;45.582;5.298;2023-03-16T16:07:47;6.35;;;1.73;;
33826;SDS011;20128;45.582;5.298;2023-03-16T16:10:13;7.47;;;1.88;;
33826;SDS011;20128;45.582;5.298;2023-03-16T16:12:40;1.73;;;1.02;;
33826;SDS011;20128;45.582;5.298;2023-03-16T16:15:25;7.85;;;1.80;;
33826;SDS011;20128;45.582;5.298;2023-03-16T16:17:53;6.93;;;2.22;;
33826;SDS011;20128;45.582;5.298;2023-03-16T16:22:48;8.98;;;1.63;;
33826;SDS011;20128;45.582;5.298;2023-03-16T16:25:15;8.52;;;2.05;;
33826;SDS011;20128;45.582;5.298;2023-03-16T16:27:42;51.97;;;12.23;;
33826;SDS011;20128;45.582;5.298;2023-03-16T16:30:19;4.97;;;2.47;;
33826;SDS011;20128;45.582;5.298;2023-03-16T16:32:50;5.45;;;1.73;;
33826;SDS011;20128;45.582;5.298;2023-03-16T16:35:17;7.43;;;1.80;;
33826;SDS011;20128;45.582;5.298;2023-03-16T16:37:47;6.32;;;1.90;;
33826;SDS011;20128;45.582;5.298;2023-03-16T16:40:14;3.25;;;1.55;;
33826;SDS011;20128;45.582;5.298;2023-03-16T16:42:41;6.93;;;1.75;;
33826;SDS011;20128;45.582;5.298;2023-03-16T16:45:28;7.45;;;2.00;;